sensor_id;sensor_type;location;lat;lon;timestamp;temperature;humidity
17033;DHT22;63208;52.178;21.016;2023-04-22T00:03:31;12.70;90.30
17033;DHT22;63208;52.178;21.016;2023-04-22T00:05:59;12.70;90.70
17033;DHT22;63208;52.178;21.016;2023-04-22T00:08:26;12.60;90.90
17033;DHT22;63208;52.178;21.016;2023-04-22T00:10:52;12.60;91.00
17033;DHT22;63208;52.178;21.016;2023-04-22T00:13:19;12.60;91.30
17033;DHT22;63208;52.178;21.016;2023-04-22T00:15:46;12.50;91.70
17033;DHT22;63208;52.178;21.016;2023-04-22T00:18:13;12.50;91.70
17033;DHT22;63208;52.178;21.016;2023-04-22T00:20:42;12.40;91.90
17033;DHT22;63208;52.178;21.016;2023-04-22T00:23:09;12.40;92.20
17033;DHT22;63208;52.178;21.016;2023-04-22T00:25:36;12.40;92.30
17033;DHT22;63208;52.178;21.016;2023-04-22T00:28:03;12.40;92.50
17033;DHT22;63208;52.178;21.016;2023-04-22T00:30:29;12.40;92.80
17033;DHT22;63208;52.178;21.016;2023-04-22T00:32:56;12.30;93.00
17033;DHT22;63208;52.178;21.016;2023-04-22T00:35:23;12.20;93.40
17033;DHT22;63208;52.178;21.016;2023-04-22T00:38:07;12.20;93.50
17033;DHT22;63208;52.178;21.016;2023-04-22T00:40:34;12.10;93.80
17033;DHT22;63208;52.178;21.016;2023-04-22T00:43:01;12.10;94.20
17033;DHT22;63208;52.178;21.016;2023-04-22T00:45:28;12.00;94.50
17033;DHT22;63208;52.178;21.016;2023-04-22T00:47:55;11.90;94.80
17033;DHT22;63208;52.178;21.016;2023-04-22T00:50:22;11.90;95.20
17033;DHT22;63208;52.178;21.016;2023-04-22T00:52:49;12.00;95.30
17033;DHT22;63208;52.178;21.016;2023-04-22T00:55:17;11.90;95.60
17033;DHT22;63208;52.178;21.016;2023-04-22T00:57:44;11.80;95.80
17033;DHT22;63208;52.178;21.016;2023-04-22T01:00:11;11.90;95.90
17033;DHT22;63208;52.178;21.016;2023-04-22T01:02:38;11.80;96.30
17033;DHT22;63208;52.178;21.016;2023-04-22T01:05:06;11.80;96.40
17033;DHT22;63208;52.178;21.016;2023-04-22T01:07:34;11.80;96.50
17033;DHT22;63208;52.178;21.016;2023-04-22T01:10:00;11.80;96.70
17033;DHT22;63208;52.178;21.016;2023-04-22T01:12:28;11.80;97.00
17033;DHT22;63208;52.178;21.016;2023-04-22T01:14:55;11.70;97.30
17033;DHT22;63208;52.178;21.016;2023-04-22T01:17:22;11.70;97.60
17033;DHT22;63208;52.178;21.016;2023-04-22T01:19:50;11.70;97.90
17033;DHT22;63208;52.178;21.016;2023-04-22T01:22:17;11.60;98.20
17033;DHT22;63208;52.178;21.016;2023-04-22T01:24:45;11.70;98.30
17033;DHT22;63208;52.178;21.016;2023-04-22T01:27:12;11.70;98.50
17033;DHT22;63208;52.178;21.016;2023-04-22T01:29:39;11.60;98.80
17033;DHT22;63208;52.178;21.016;2023-04-22T01:32:06;9.90;98.60
17033;DHT22;63208;52.178;21.016;2023-04-22T01:34:32;11.60;99.10
17033;DHT22;63208;52.178;21.016;2023-04-22T01:36:59;11.60;99.40
17033;DHT22;63208;52.178;21.016;2023-04-22T01:39:26;11.60;99.60
17033;DHT22;63208;52.178;21.016;2023-04-22T01:41:54;11.60;99.70
17033;DHT22;63208;52.178;21.016;2023-04-22T01:44:21;11.50;99.90
17033;DHT22;63208;52.178;21.016;2023-04-22T01:46:48;11.50;99.90
17033;DHT22;63208;52.178;21.016;2023-04-22T01:49:15;11.40;99.90
17033;DHT22;63208;52.178;21.016;2023-04-22T01:51:41;11.40;99.90
17033;DHT22;63208;52.178;21.016;2023-04-22T01:54:08;11.40;99.90
17033;DHT22;63208;52.178;21.016;2023-04-22T01:56:35;11.40;99.90
17033;DHT22;63208;52.178;21.016;2023-04-22T01:59:04;11.30;99.90
17033;DHT22;63208;52.178;21.016;2023-04-22T02:01:31;11.30;99.90
17033;DHT22;63208;52.178;21.016;2023-04-22T02:03:57;11.30;99.90
17033;DHT22;63208;52.178;21.016;2023-04-22T02:06:24;11.30;99.90
17033;DHT22;63208;52.178;21.016;2023-04-22T02:08:51;11.30;99.90
17033;DHT22;63208;52.178;21.016;2023-04-22T02:11:18;11.30;99.90
17033;DHT22;63208;52.178;21.016;2023-04-22T02:13:45;11.20;99.90
17033;DHT22;63208;52.178;21.016;2023-04-22T02:16:13;11.20;99.90
17033;DHT22;63208;52.178;21.016;2023-04-22T02:18:40;11.20;99.90
17033;DHT22;63208;52.178;21.016;2023-04-22T02:21:07;11.10;99.90
17033;DHT22;63208;52.178;21.016;2023-04-22T02:23:33;11.10;99.90
17033;DHT22;63208;52.178;21.016;2023-04-22T02:26:00;11.00;99.90
17033;DHT22;63208;52.178;21.016;2023-04-22T02:28:27;11.00;99.90
17033;DHT22;63208;52.178;21.016;2023-04-22T02:30:54;11.10;99.90
17033;DHT22;63208;52.178;21.016;2023-04-22T02:33:22;11.10;99.90
17033;DHT22;63208;52.178;21.016;2023-04-22T02:35:49;11.00;99.90
17033;DHT22;63208;52.178;21.016;2023-04-22T02:38:16;11.00;99.90
17033;DHT22;63208;52.178;21.016;2023-04-22T02:40:42;11.00;99.90
17033;DHT22;63208;52.178;21.016;2023-04-22T02:43:09;10.90;99.90
17033;DHT22;63208;52.178;21.016;2023-04-22T02:45:36;10.90;99.90
17033;DHT22;63208;52.178;21.016;2023-04-22T02:48:03;10.90;99.90
17033;DHT22;63208;52.178;21.016;2023-04-22T02:50:31;10.90;99.90
17033;DHT22;63208;52.178;21.016;2023-04-22T02:52:57;10.80;99.90
17033;DHT22;63208;52.178;21.016;2023-04-22T02:55:24;10.80;99.90
17033;DHT22;63208;52.178;21.016;2023-04-22T02:57:51;10.80;99.90
17033;DHT22;63208;52.178;21.016;2023-04-22T03:00:18;10.80;99.90
17033;DHT22;63208;52.178;21.016;2023-04-22T03:02:44;10.80;99.90
17033;DHT22;63208;52.178;21.016;2023-04-22T03:05:11;10.80;99.90
17033;DHT22;63208;52.178;21.016;2023-04-22T03:07:40;10.70;99.90
17033;DHT22;63208;52.178;21.016;2023-04-22T03:10:07;10.70;99.90
17033;DHT22;63208;52.178;21.016;2023-04-22T03:12:34;10.70;99.90
17033;DHT22;63208;52.178;21.016;2023-04-22T03:15:00;10.60;99.90
17033;DHT22;63208;52.178;21.016;2023-04-22T03:17:27;10.70;99.90
17033;DHT22;63208;52.178;21.016;2023-04-22T03:19:54;10.70;99.90
17033;DHT22;63208;52.178;21.016;2023-04-22T03:22:21;10.60;99.90
17033;DHT22;63208;52.178;21.016;2023-04-22T03:24:49;10.70;99.90
17033;DHT22;63208;52.178;21.016;2023-04-22T03:27:15;10.60;99.90
17033;DHT22;63208;52.178;21.016;2023-04-22T03:29:42;10.60;99.90
17033;DHT22;63208;52.178;21.016;2023-04-22T03:32:09;10.60;99.90
17033;DHT22;63208;52.178;21.016;2023-04-22T03:34:38;10.60;99.90
17033;DHT22;63208;52.178;21.016;2023-04-22T03:37:05;10.50;99.90
17033;DHT22;63208;52.178;21.016;2023-04-22T03:39:32;10.60;99.90
17033;DHT22;63208;52.178;21.016;2023-04-22T03:42:00;10.60;99.90
17033;DHT22;63208;52.178;21.016;2023-04-22T03:44:27;10.50;99.90
17033;DHT22;63208;52.178;21.016;2023-04-22T03:46:54;10.50;99.90
17033;DHT22;63208;52.178;21.016;2023-04-22T03:49:22;10.40;99.90
17033;DHT22;63208;52.178;21.016;2023-04-22T03:54:57;10.40;99.90
17033;DHT22;63208;52.178;21.016;2023-04-22T03:57:29;10.00;99.90
17033;DHT22;63208;52.178;21.016;2023-04-22T03:59:55;10.20;99.90
17033;DHT22;63208;52.178;21.016;2023-04-22T04:02:22;10.20;99.90
17033;DHT22;63208;52.178;21.016;2023-04-22T04:04:49;10.30;99.90
17033;DHT22;63208;52.178;21.016;2023-04-22T04:07:18;10.30;99.90
17033;DHT22;63208;52.178;21.016;2023-04-22T04:09:47;10.20;99.90
17033;DHT22;63208;52.178;21.016;2023-04-22T04:12:14;12.60;99.90
17033;DHT22;63208;52.178;21.016;2023-04-22T04:14:42;10.20;99.90
17033;DHT22;63208;52.178;21.016;2023-04-22T04:17:09;10.20;99.90
17033;DHT22;63208;52.178;21.016;2023-04-22T04:19:38;10.40;99.90
17033;DHT22;63208;52.178;21.016;2023-04-22T04:22:05;10.40;99.90
17033;DHT22;63208;52.178;21.016;2023-04-22T04:24:33;10.40;99.90
17033;DHT22;63208;52.178;21.016;2023-04-22T04:27:00;10.50;99.90
17033;DHT22;63208;52.178;21.016;2023-04-22T04:29:27;10.50;99.90
17033;DHT22;63208;52.178;21.016;2023-04-22T04:31:55;10.50;99.90
17033;DHT22;63208;52.178;21.016;2023-04-22T04:34:22;10.60;99.90
17033;DHT22;63208;52.178;21.016;2023-04-22T04:36:49;10.60;99.90
17033;DHT22;63208;52.178;21.016;2023-04-22T04:39:16;10.50;99.90
17033;DHT22;63208;52.178;21.016;2023-04-22T04:41:43;10.60;99.90
17033;DHT22;63208;52.178;21.016;2023-04-22T04:44:10;10.60;99.90
17033;DHT22;63208;52.178;21.016;2023-04-22T04:46:37;10.70;99.90
17033;DHT22;63208;52.178;21.016;2023-04-22T04:49:05;10.70;99.90
17033;DHT22;63208;52.178;21.016;2023-04-22T04:51:33;10.70;99.90
17033;DHT22;63208;52.178;21.016;2023-04-22T04:54:00;10.80;99.90
17033;DHT22;63208;52.178;21.016;2023-04-22T04:56:27;10.80;99.90
17033;DHT22;63208;52.178;21.016;2023-04-22T04:58:55;10.80;99.90
17033;DHT22;63208;52.178;21.016;2023-04-22T05:24:25;10.10;99.90
17033;DHT22;63208;52.178;21.016;2023-04-22T05:29:56;11.20;99.90
17033;DHT22;63208;52.178;21.016;2023-04-22T05:32:24;11.20;99.90
17033;DHT22;63208;52.178;21.016;2023-04-22T05:34:51;11.30;99.90
17033;DHT22;63208;52.178;21.016;2023-04-22T05:37:18;11.30;99.90
17033;DHT22;63208;52.178;21.016;2023-04-22T05:39:46;11.40;99.90
17033;DHT22;63208;52.178;21.016;2023-04-22T05:42:13;11.40;99.90
17033;DHT22;63208;52.178;21.016;2023-04-22T05:44:40;11.40;99.90
17033;DHT22;63208;52.178;21.016;2023-04-22T05:47:06;11.60;99.90
17033;DHT22;63208;52.178;21.016;2023-04-22T05:50:06;11.60;99.90
17033;DHT22;63208;52.178;21.016;2023-04-22T05:52:33;11.60;99.90
17033;DHT22;63208;52.178;21.016;2023-04-22T05:55:01;11.70;99.90
17033;DHT22;63208;52.178;21.016;2023-04-22T05:57:27;11.80;99.90
17033;DHT22;63208;52.178;21.016;2023-04-22T05:59:54;11.80;99.90
17033;DHT22;63208;52.178;21.016;2023-04-22T06:02:21;11.80;99.90
17033;DHT22;63208;52.178;21.016;2023-04-22T06:04:48;11.90;99.90
17033;DHT22;63208;52.178;21.016;2023-04-22T06:07:14;12.00;99.90
17033;DHT22;63208;52.178;21.016;2023-04-22T06:09:41;12.10;99.90
17033;DHT22;63208;52.178;21.016;2023-04-22T06:12:09;12.10;99.90
17033;DHT22;63208;52.178;21.016;2023-04-22T06:14:36;12.20;99.90
17033;DHT22;63208;52.178;21.016;2023-04-22T06:17:02;12.30;99.90
17033;DHT22;63208;52.178;21.016;2023-04-22T06:19:38;12.30;99.90
17033;DHT22;63208;52.178;21.016;2023-04-22T06:22:08;12.40;99.90
17033;DHT22;63208;52.178;21.016;2023-04-22T06:24:35;12.50;99.90
17033;DHT22;63208;52.178;21.016;2023-04-22T06:27:01;12.50;99.90
17033;DHT22;63208;52.178;21.016;2023-04-22T06:29:29;12.50;99.90
17033;DHT22;63208;52.178;21.016;2023-04-22T06:31:56;12.50;99.90
17033;DHT22;63208;52.178;21.016;2023-04-22T06:34:23;12.60;99.90
17033;DHT22;63208;52.178;21.016;2023-04-22T06:36:50;12.60;99.90
17033;DHT22;63208;52.178;21.016;2023-04-22T06:39:17;12.70;99.90
17033;DHT22;63208;52.178;21.016;2023-04-22T06:41:44;12.80;99.90
17033;DHT22;63208;52.178;21.016;2023-04-22T06:44:10;12.80;99.90
17033;DHT22;63208;52.178;21.016;2023-04-22T06:46:38;12.90;99.90
17033;DHT22;63208;52.178;21.016;2023-04-22T06:49:05;12.90;99.90
17033;DHT22;63208;52.178;21.016;2023-04-22T06:51:32;13.00;99.90
17033;DHT22;63208;52.178;21.016;2023-04-22T06:53:59;13.00;99.90
17033;DHT22;63208;52.178;21.016;2023-04-22T06:56:25;13.10;99.90
17033;DHT22;63208;52.178;21.016;2023-04-22T06:58:52;13.20;99.90
17033;DHT22;63208;52.178;21.016;2023-04-22T07:01:19;13.30;99.90
17033;DHT22;63208;52.178;21.016;2023-04-22T07:03:47;13.30;99.90
17033;DHT22;63208;52.178;21.016;2023-04-22T07:06:14;13.40;99.90
17033;DHT22;63208;52.178;21.016;2023-04-22T07:08:40;13.50;99.90
17033;DHT22;63208;52.178;21.016;2023-04-22T07:11:07;13.50;99.90
17033;DHT22;63208;52.178;21.016;2023-04-22T07:13:34;13.50;99.90
17033;DHT22;63208;52.178;21.016;2023-04-22T07:16:01;13.60;99.90
17033;DHT22;63208;52.178;21.016;2023-04-22T07:18:27;13.70;99.90
17033;DHT22;63208;52.178;21.016;2023-04-22T07:20:56;13.80;99.90
17033;DHT22;63208;52.178;21.016;2023-04-22T07:23:22;13.80;99.90
17033;DHT22;63208;52.178;21.016;2023-04-22T07:25:49;13.90;99.90
17033;DHT22;63208;52.178;21.016;2023-04-22T07:28:16;14.00;99.90
17033;DHT22;63208;52.178;21.016;2023-04-22T07:30:42;14.00;99.90
17033;DHT22;63208;52.178;21.016;2023-04-22T07:33:10;14.10;99.90
17033;DHT22;63208;52.178;21.016;2023-04-22T07:35:37;14.20;99.90
17033;DHT22;63208;52.178;21.016;2023-04-22T07:40:44;14.50;99.90
17033;DHT22;63208;52.178;21.016;2023-04-22T07:43:10;14.60;99.90
17033;DHT22;63208;52.178;21.016;2023-04-22T07:45:37;14.60;99.90
17033;DHT22;63208;52.178;21.016;2023-04-22T07:48:04;14.60;99.90
17033;DHT22;63208;52.178;21.016;2023-04-22T07:50:31;14.60;99.90
17033;DHT22;63208;52.178;21.016;2023-04-22T07:52:58;14.60;99.90
17033;DHT22;63208;52.178;21.016;2023-04-22T07:55:25;14.70;99.90
17033;DHT22;63208;52.178;21.016;2023-04-22T07:57:53;14.80;99.90
17033;DHT22;63208;52.178;21.016;2023-04-22T08:00:20;14.90;99.90
17033;DHT22;63208;52.178;21.016;2023-04-22T08:02:47;14.80;99.90
17033;DHT22;63208;52.178;21.016;2023-04-22T08:05:13;14.90;99.90
17033;DHT22;63208;52.178;21.016;2023-04-22T08:07:40;15.00;99.90
17033;DHT22;63208;52.178;21.016;2023-04-22T08:10:07;15.10;99.90
17033;DHT22;63208;52.178;21.016;2023-04-22T08:12:34;15.20;99.90
17033;DHT22;63208;52.178;21.016;2023-04-22T08:15:02;15.30;99.90
17033;DHT22;63208;52.178;21.016;2023-04-22T08:17:29;15.30;99.90
17033;DHT22;63208;52.178;21.016;2023-04-22T08:19:56;15.50;97.30
17033;DHT22;63208;52.178;21.016;2023-04-22T08:22:23;15.50;95.00
17033;DHT22;63208;52.178;21.016;2023-04-22T08:24:49;15.60;94.60
17033;DHT22;63208;52.178;21.016;2023-04-22T08:27:16;15.60;94.50
17033;DHT22;63208;52.178;21.016;2023-04-22T08:29:43;13.80;93.30
17033;DHT22;63208;52.178;21.016;2023-04-22T08:32:11;15.80;94.60
17033;DHT22;63208;52.178;21.016;2023-04-22T08:34:38;15.90;93.50
17033;DHT22;63208;52.178;21.016;2023-04-22T08:37:05;15.90;92.90
17033;DHT22;63208;52.178;21.016;2023-04-22T08:39:52;15.90;93.40
17033;DHT22;63208;52.178;21.016;2023-04-22T08:42:19;17.30;95.80
17033;DHT22;63208;52.178;21.016;2023-04-22T08:44:47;16.00;92.60
17033;DHT22;63208;52.178;21.016;2023-04-22T08:47:15;16.00;93.10
17033;DHT22;63208;52.178;21.016;2023-04-22T08:49:44;16.10;92.40
17033;DHT22;63208;52.178;21.016;2023-04-22T08:52:11;16.10;90.80
17033;DHT22;63208;52.178;21.016;2023-04-22T08:54:39;16.10;91.20
17033;DHT22;63208;52.178;21.016;2023-04-22T08:57:06;16.20;91.30
17033;DHT22;63208;52.178;21.016;2023-04-22T09:02:22;16.30;90.70
17033;DHT22;63208;52.178;21.016;2023-04-22T09:07:48;16.20;90.70
17033;DHT22;63208;52.178;21.016;2023-04-22T09:10:14;16.30;91.20
17033;DHT22;63208;52.178;21.016;2023-04-22T09:12:41;16.40;89.90
17033;DHT22;63208;52.178;21.016;2023-04-22T09:15:08;16.30;89.50
17033;DHT22;63208;52.178;21.016;2023-04-22T09:20:22;16.50;90.40
17033;DHT22;63208;52.178;21.016;2023-04-22T09:22:51;16.50;87.30
17033;DHT22;63208;52.178;21.016;2023-04-22T09:25:19;16.50;85.70
17033;DHT22;63208;52.178;21.016;2023-04-22T09:27:49;16.50;86.80
17033;DHT22;63208;52.178;21.016;2023-04-22T09:30:16;16.70;86.10
17033;DHT22;63208;52.178;21.016;2023-04-22T09:32:50;16.80;85.80
17033;DHT22;63208;52.178;21.016;2023-04-22T09:35:23;16.90;82.80
17033;DHT22;63208;52.178;21.016;2023-04-22T09:37:51;16.90;84.60
17033;DHT22;63208;52.178;21.016;2023-04-22T09:43:11;16.90;83.10
17033;DHT22;63208;52.178;21.016;2023-04-22T09:45:56;17.00;85.00
17033;DHT22;63208;52.178;21.016;2023-04-22T09:48:25;17.00;84.30
17033;DHT22;63208;52.178;21.016;2023-04-22T09:50:53;18.40;83.30
17033;DHT22;63208;52.178;21.016;2023-04-22T09:53:20;17.10;83.10
17033;DHT22;63208;52.178;21.016;2023-04-22T09:55:47;17.10;86.00
17033;DHT22;63208;52.178;21.016;2023-04-22T09:58:15;16.30;81.10
17033;DHT22;63208;52.178;21.016;2023-04-22T10:03:29;17.30;81.40
17033;DHT22;63208;52.178;21.016;2023-04-22T10:05:57;16.00;82.60
17033;DHT22;63208;52.178;21.016;2023-04-22T10:08:24;17.30;83.50
17033;DHT22;63208;52.178;21.016;2023-04-22T10:10:51;17.30;81.90
17033;DHT22;63208;52.178;21.016;2023-04-22T10:13:18;17.50;85.00
17033;DHT22;63208;52.178;21.016;2023-04-22T10:15:48;17.70;86.00
17033;DHT22;63208;52.178;21.016;2023-04-22T10:18:17;17.60;83.10
17033;DHT22;63208;52.178;21.016;2023-04-22T10:20:47;17.70;83.70
17033;DHT22;63208;52.178;21.016;2023-04-22T10:23:17;17.00;81.00
17033;DHT22;63208;52.178;21.016;2023-04-22T10:25:45;17.70;82.10
17033;DHT22;63208;52.178;21.016;2023-04-22T10:28:19;17.80;84.40
17033;DHT22;63208;52.178;21.016;2023-04-22T10:31:19;18.50;83.20
17033;DHT22;63208;52.178;21.016;2023-04-22T10:33:46;18.00;86.90
17033;DHT22;63208;52.178;21.016;2023-04-22T10:36:51;18.10;83.90
17033;DHT22;63208;52.178;21.016;2023-04-22T10:42:38;18.30;80.20
17033;DHT22;63208;52.178;21.016;2023-04-22T10:45:05;20.20;83.60
17033;DHT22;63208;52.178;21.016;2023-04-22T10:47:33;18.30;79.60
17033;DHT22;63208;52.178;21.016;2023-04-22T10:52:58;16.80;82.50
17033;DHT22;63208;52.178;21.016;2023-04-22T10:55:47;18.60;88.30
17033;DHT22;63208;52.178;21.016;2023-04-22T10:58:18;18.70;79.60
17033;DHT22;63208;52.178;21.016;2023-04-22T11:00:45;18.80;78.40
17033;DHT22;63208;52.178;21.016;2023-04-22T11:03:17;18.80;81.40
17033;DHT22;63208;52.178;21.016;2023-04-22T11:05:44;18.70;76.40
17033;DHT22;63208;52.178;21.016;2023-04-22T11:08:12;18.80;81.90
17033;DHT22;63208;52.178;21.016;2023-04-22T11:10:50;18.80;74.00
17033;DHT22;63208;52.178;21.016;2023-04-22T11:18:26;17.40;75.50
17033;DHT22;63208;52.178;21.016;2023-04-22T11:20:52;19.00;75.50
17033;DHT22;63208;52.178;21.016;2023-04-22T11:23:22;18.90;74.90
17033;DHT22;63208;52.178;21.016;2023-04-22T11:25:52;19.10;77.50
17033;DHT22;63208;52.178;21.016;2023-04-22T11:28:19;19.20;73.30
17033;DHT22;63208;52.178;21.016;2023-04-22T11:30:47;19.30;73.50
17033;DHT22;63208;52.178;21.016;2023-04-22T11:33:14;19.40;74.00
17033;DHT22;63208;52.178;21.016;2023-04-22T11:35:42;19.60;81.10
17033;DHT22;63208;52.178;21.016;2023-04-22T11:41:12;19.60;72.40
17033;DHT22;63208;52.178;21.016;2023-04-22T11:43:44;19.80;75.90
17033;DHT22;63208;52.178;21.016;2023-04-22T11:46:11;20.00;73.00
17033;DHT22;63208;52.178;21.016;2023-04-22T11:48:38;20.30;74.70
17033;DHT22;63208;52.178;21.016;2023-04-22T11:51:09;20.40;72.30
17033;DHT22;63208;52.178;21.016;2023-04-22T11:53:37;20.50;72.20
17033;DHT22;63208;52.178;21.016;2023-04-22T11:56:05;20.60;71.70
17033;DHT22;63208;52.178;21.016;2023-04-22T11:58:32;20.90;74.80
17033;DHT22;63208;52.178;21.016;2023-04-22T12:00:59;21.00;72.50
17033;DHT22;63208;52.178;21.016;2023-04-22T12:03:26;21.20;69.70
17033;DHT22;63208;52.178;21.016;2023-04-22T12:05:55;21.20;64.80
17033;DHT22;63208;52.178;21.016;2023-04-22T12:10:49;21.20;68.70
17033;DHT22;63208;52.178;21.016;2023-04-22T12:13:17;21.20;67.90
17033;DHT22;63208;52.178;21.016;2023-04-22T12:15:44;20.90;67.00
17033;DHT22;63208;52.178;21.016;2023-04-22T12:18:11;20.60;66.00
17033;DHT22;63208;52.178;21.016;2023-04-22T12:20:38;20.00;67.10
17033;DHT22;63208;52.178;21.016;2023-04-22T12:23:10;19.80;66.90
17033;DHT22;63208;52.178;21.016;2023-04-22T12:25:37;19.70;67.10
17033;DHT22;63208;52.178;21.016;2023-04-22T12:28:05;19.80;69.80
17033;DHT22;63208;52.178;21.016;2023-04-22T12:30:33;20.10;66.40
17033;DHT22;63208;52.178;21.016;2023-04-22T12:32:59;20.10;66.90
17033;DHT22;63208;52.178;21.016;2023-04-22T12:35:26;20.40;67.50
17033;DHT22;63208;52.178;21.016;2023-04-22T12:37:53;20.90;66.20
17033;DHT22;63208;52.178;21.016;2023-04-22T12:40:19;21.20;67.50
17033;DHT22;63208;52.178;21.016;2023-04-22T12:42:46;21.60;65.50
17033;DHT22;63208;52.178;21.016;2023-04-22T12:45:15;21.80;65.10
17033;DHT22;63208;52.178;21.016;2023-04-22T12:47:41;21.70;62.70
17033;DHT22;63208;52.178;21.016;2023-04-22T12:50:09;22.10;62.90
17033;DHT22;63208;52.178;21.016;2023-04-22T12:55:19;22.40;62.70
17033;DHT22;63208;52.178;21.016;2023-04-22T12:57:46;22.70;61.30
17033;DHT22;63208;52.178;21.016;2023-04-22T13:00:16;22.30;60.40
17033;DHT22;63208;52.178;21.016;2023-04-22T13:02:43;22.40;63.00
17033;DHT22;63208;52.178;21.016;2023-04-22T13:05:10;23.10;63.30
17033;DHT22;63208;52.178;21.016;2023-04-22T13:07:37;23.70;58.80
17033;DHT22;63208;52.178;21.016;2023-04-22T13:10:05;24.50;58.80
17033;DHT22;63208;52.178;21.016;2023-04-22T13:12:32;25.20;59.50
17033;DHT22;63208;52.178;21.016;2023-04-22T13:14:59;26.00;56.50
17033;DHT22;63208;52.178;21.016;2023-04-22T13:17:27;26.20;54.80
17033;DHT22;63208;52.178;21.016;2023-04-22T13:19:54;25.00;53.30
17033;DHT22;63208;52.178;21.016;2023-04-22T13:22:21;25.10;56.00
17033;DHT22;63208;52.178;21.016;2023-04-22T13:24:48;25.30;55.70
17033;DHT22;63208;52.178;21.016;2023-04-22T13:27:15;25.30;56.30
17033;DHT22;63208;52.178;21.016;2023-04-22T13:29:41;25.40;54.80
17033;DHT22;63208;52.178;21.016;2023-04-22T13:32:08;25.40;56.70
17033;DHT22;63208;52.178;21.016;2023-04-22T13:34:39;24.90;53.40
17033;DHT22;63208;52.178;21.016;2023-04-22T13:37:06;24.10;53.60
17033;DHT22;63208;52.178;21.016;2023-04-22T13:39:33;23.80;56.00
17033;DHT22;63208;52.178;21.016;2023-04-22T13:41:59;24.00;54.40
17033;DHT22;63208;52.178;21.016;2023-04-22T13:44:27;25.30;54.30
17033;DHT22;63208;52.178;21.016;2023-04-22T13:46:54;26.50;52.20
17033;DHT22;63208;52.178;21.016;2023-04-22T13:49:21;27.60;50.60
17033;DHT22;63208;52.178;21.016;2023-04-22T13:51:49;28.60;49.70
17033;DHT22;63208;52.178;21.016;2023-04-22T13:54:15;29.00;48.30
17033;DHT22;63208;52.178;21.016;2023-04-22T13:56:42;28.00;48.10
17033;DHT22;63208;52.178;21.016;2023-04-22T13:59:09;28.90;48.00
17033;DHT22;63208;52.178;21.016;2023-04-22T14:01:36;27.80;47.60
17033;DHT22;63208;52.178;21.016;2023-04-22T14:04:03;24.30;51.00
17033;DHT22;63208;52.178;21.016;2023-04-22T14:06:29;24.30;51.60
17033;DHT22;63208;52.178;21.016;2023-04-22T14:08:58;25.50;50.80
17033;DHT22;63208;52.178;21.016;2023-04-22T14:11:25;25.70;50.50
17033;DHT22;63208;52.178;21.016;2023-04-22T14:13:52;25.30;51.50
17033;DHT22;63208;52.178;21.016;2023-04-22T14:16:19;24.80;51.00
17033;DHT22;63208;52.178;21.016;2023-04-22T14:18:45;24.50;53.00
17033;DHT22;63208;52.178;21.016;2023-04-22T14:21:13;22.50;51.40
17033;DHT22;63208;52.178;21.016;2023-04-22T14:23:40;23.60;53.50
17033;DHT22;63208;52.178;21.016;2023-04-22T14:26:09;23.40;54.30
17033;DHT22;63208;52.178;21.016;2023-04-22T14:28:36;23.10;53.60
17033;DHT22;63208;52.178;21.016;2023-04-22T14:31:03;22.90;53.40
17033;DHT22;63208;52.178;21.016;2023-04-22T14:33:30;24.50;55.80
17033;DHT22;63208;52.178;21.016;2023-04-22T14:35:57;22.30;55.70
17033;DHT22;63208;52.178;21.016;2023-04-22T14:38:24;21.90;54.70
17033;DHT22;63208;52.178;21.016;2023-04-22T14:40:51;21.40;55.10
17033;DHT22;63208;52.178;21.016;2023-04-22T14:46:08;21.10;54.80
17033;DHT22;63208;52.178;21.016;2023-04-22T14:48:36;21.50;55.40
17033;DHT22;63208;52.178;21.016;2023-04-22T14:51:03;21.50;54.90
17033;DHT22;63208;52.178;21.016;2023-04-22T14:53:46;21.70;55.20
17033;DHT22;63208;52.178;21.016;2023-04-22T14:56:15;22.80;55.00
17033;DHT22;63208;52.178;21.016;2023-04-22T15:04:50;20.50;55.60
17033;DHT22;63208;52.178;21.016;2023-04-22T15:07:17;19.90;55.60
17033;DHT22;63208;52.178;21.016;2023-04-22T15:09:43;21.00;56.10
17033;DHT22;63208;52.178;21.016;2023-04-22T15:12:10;20.90;56.60
17033;DHT22;63208;52.178;21.016;2023-04-22T15:14:37;20.80;57.90
17033;DHT22;63208;52.178;21.016;2023-04-22T15:17:04;20.70;58.60
17033;DHT22;63208;52.178;21.016;2023-04-22T15:19:31;20.60;58.50
17033;DHT22;63208;52.178;21.016;2023-04-22T15:22:01;20.80;57.80
17033;DHT22;63208;52.178;21.016;2023-04-22T15:24:28;20.70;57.40
17033;DHT22;63208;52.178;21.016;2023-04-22T15:26:54;20.60;57.20
17033;DHT22;63208;52.178;21.016;2023-04-22T15:29:22;20.40;57.50
17033;DHT22;63208;52.178;21.016;2023-04-22T15:31:49;20.40;57.40
17033;DHT22;63208;52.178;21.016;2023-04-22T15:34:15;20.30;57.10
17033;DHT22;63208;52.178;21.016;2023-04-22T15:39:44;20.00;57.70
17033;DHT22;63208;52.178;21.016;2023-04-22T15:45:25;20.60;57.80
17033;DHT22;63208;52.178;21.016;2023-04-22T15:48:00;20.80;58.40
17033;DHT22;63208;52.178;21.016;2023-04-22T15:50:49;20.00;58.10
17033;DHT22;63208;52.178;21.016;2023-04-22T15:53:18;21.10;58.20
17033;DHT22;63208;52.178;21.016;2023-04-22T15:55:47;21.10;57.10
17033;DHT22;63208;52.178;21.016;2023-04-22T15:58:20;21.90;56.90
17033;DHT22;63208;52.178;21.016;2023-04-22T16:03:31;21.40;56.60
17033;DHT22;63208;52.178;21.016;2023-04-22T16:06:10;21.40;56.50
17033;DHT22;63208;52.178;21.016;2023-04-22T16:08:40;20.20;57.30
17033;DHT22;63208;52.178;21.016;2023-04-22T16:11:08;21.20;57.60
17033;DHT22;63208;52.178;21.016;2023-04-22T16:13:35;21.70;58.30
17033;DHT22;63208;52.178;21.016;2023-04-22T16:16:03;21.60;56.20
17033;DHT22;63208;52.178;21.016;2023-04-22T16:18:30;21.80;56.70
17033;DHT22;63208;52.178;21.016;2023-04-22T16:20:57;22.00;55.90
17033;DHT22;63208;52.178;21.016;2023-04-22T16:23:24;22.20;55.30
17033;DHT22;63208;52.178;21.016;2023-04-22T16:25:51;21.80;54.90
17033;DHT22;63208;52.178;21.016;2023-04-22T16:28:19;22.30;55.70
17033;DHT22;63208;52.178;21.016;2023-04-22T16:30:46;22.20;56.00
17033;DHT22;63208;52.178;21.016;2023-04-22T16:33:13;22.30;56.30
17033;DHT22;63208;52.178;21.016;2023-04-22T16:35:40;22.20;56.40
17033;DHT22;63208;52.178;21.016;2023-04-22T16:38:07;22.40;55.30
17033;DHT22;63208;52.178;21.016;2023-04-22T16:40:46;22.30;55.30
17033;DHT22;63208;52.178;21.016;2023-04-22T16:43:13;22.20;58.40
17033;DHT22;63208;52.178;21.016;2023-04-22T16:45:53;22.20;58.30